sensor_id;sensor_type;location;lat;lon;timestamp;P1;durP1;ratioP1;P2;durP2;ratioP2
43519;SDS011;46848;51.980;5.918;2023-06-14T00:00:18;5.60;;;2.55;;
43519;SDS011;46848;51.980;5.918;2023-06-14T00:02:45;5.10;;;1.98;;
43519;SDS011;46848;51.980;5.918;2023-06-14T00:05:10;6.88;;;2.50;;
43519;SDS011;46848;51.980;5.918;2023-06-14T00:07:39;5.00;;;2.22;;
43519;SDS011;46848;51.980;5.918;2023-06-14T00:10:09;3.88;;;2.28;;
43519;SDS011;46848;51.980;5.918;2023-06-14T00:12:36;5.38;;;2.30;;
43519;SDS011;46848;51.980;5.918;2023-06-14T00:15:03;5.07;;;2.10;;
43519;SDS011;46848;51.980;5.918;2023-06-14T00:17:29;5.53;;;2.10;;
43519;SDS011;46848;51.980;5.918;2023-06-14T00:19:56;6.28;;;3.38;;
43519;SDS011;46848;51.980;5.918;2023-06-14T00:22:22;5.32;;;2.33;;
43519;SDS011;46848;51.980;5.918;2023-06-14T00:24:53;6.60;;;2.30;;
43519;SDS011;46848;51.980;5.918;2023-06-14T00:27:19;5.15;;;2.10;;
43519;SDS011;46848;51.980;5.918;2023-06-14T00:29:45;6.68;;;2.15;;
43519;SDS011;46848;51.980;5.918;2023-06-14T00:32:10;5.93;;;2.40;;
43519;SDS011;46848;51.980;5.918;2023-06-14T00:34:36;6.45;;;2.40;;
43519;SDS011;46848;51.980;5.918;2023-06-14T00:37:02;3.95;;;2.22;;
43519;SDS011;46848;51.980;5.918;2023-06-14T00:39:27;3.85;;;1.77;;
43519;SDS011;46848;51.980;5.918;2023-06-14T00:41:53;5.63;;;2.20;;
43519;SDS011;46848;51.980;5.918;2023-06-14T00:44:19;8.25;;;2.30;;
43519;SDS011;46848;51.980;5.918;2023-06-14T00:46:45;4.03;;;2.40;;
43519;SDS011;46848;51.980;5.918;2023-06-14T00:49:11;4.30;;;1.83;;
43519;SDS011;46848;51.980;5.918;2023-06-14T00:51:40;6.93;;;2.42;;
43519;SDS011;46848;51.980;5.918;2023-06-14T00:54:09;6.70;;;2.05;;
43519;SDS011;46848;51.980;5.918;2023-06-14T00:56:36;4.53;;;2.20;;
43519;SDS011;46848;51.980;5.918;2023-06-14T00:59:02;4.88;;;1.95;;
43519;SDS011;46848;51.980;5.918;2023-06-14T01:01:28;5.55;;;2.28;;
43519;SDS011;46848;51.980;5.918;2023-06-14T01:03:57;7.03;;;2.35;;
43519;SDS011;46848;51.980;5.918;2023-06-14T01:06:27;4.18;;;2.20;;
43519;SDS011;46848;51.980;5.918;2023-06-14T01:09:18;5.43;;;2.40;;
43519;SDS011;46848;51.980;5.918;2023-06-14T01:12:04;3.75;;;1.80;;
43519;SDS011;46848;51.980;5.918;2023-06-14T01:14:38;6.57;;;1.88;;
43519;SDS011;46848;51.980;5.918;2023-06-14T01:17:04;4.78;;;2.00;;
43519;SDS011;46848;51.980;5.918;2023-06-14T01:19:32;4.75;;;2.05;;
43519;SDS011;46848;51.980;5.918;2023-06-14T01:21:59;5.13;;;2.10;;
43519;SDS011;46848;51.980;5.918;2023-06-14T01:24:26;6.85;;;2.10;;
43519;SDS011;46848;51.980;5.918;2023-06-14T01:26:57;5.20;;;2.65;;
43519;SDS011;46848;51.980;5.918;2023-06-14T01:29:24;5.35;;;2.03;;
43519;SDS011;46848;51.980;5.918;2023-06-14T01:31:52;3.13;;;1.90;;
43519;SDS011;46848;51.980;5.918;2023-06-14T01:34:19;4.55;;;2.00;;
43519;SDS011;46848;51.980;5.918;2023-06-14T01:36:45;4.43;;;1.70;;
43519;SDS011;46848;51.980;5.918;2023-06-14T01:39:13;5.30;;;1.90;;
43519;SDS011;46848;51.980;5.918;2023-06-14T01:41:40;4.90;;;2.08;;
43519;SDS011;46848;51.980;5.918;2023-06-14T01:44:07;2.97;;;1.55;;
43519;SDS011;46848;51.980;5.918;2023-06-14T01:46:34;6.30;;;1.90;;
43519;SDS011;46848;51.980;5.918;2023-06-14T01:49:00;5.07;;;2.08;;
43519;SDS011;46848;51.980;5.918;2023-06-14T01:51:26;3.47;;;1.90;;
43519;SDS011;46848;51.980;5.918;2023-06-14T01:53:51;4.00;;;2.22;;
43519;SDS011;46848;51.980;5.918;2023-06-14T01:56:17;6.15;;;2.88;;
43519;SDS011;46848;51.980;5.918;2023-06-14T02:04:01;3.22;;;1.98;;
43519;SDS011;46848;51.980;5.918;2023-06-14T02:06:27;3.38;;;2.00;;
43519;SDS011;46848;51.980;5.918;2023-06-14T02:08:53;5.10;;;1.98;;
43519;SDS011;46848;51.980;5.918;2023-06-14T02:11:19;5.93;;;2.00;;
43519;SDS011;46848;51.980;5.918;2023-06-14T02:13:44;4.45;;;2.08;;
43519;SDS011;46848;51.980;5.918;2023-06-14T02:16:11;4.90;;;1.88;;
43519;SDS011;46848;51.980;5.918;2023-06-14T02:18:37;3.30;;;1.63;;
43519;SDS011;46848;51.980;5.918;2023-06-14T02:21:03;3.85;;;1.85;;
43519;SDS011;46848;51.980;5.918;2023-06-14T02:23:28;4.47;;;1.83;;
43519;SDS011;46848;51.980;5.918;2023-06-14T02:25:57;6.43;;;2.33;;
43519;SDS011;46848;51.980;5.918;2023-06-14T02:28:22;7.75;;;2.10;;
43519;SDS011;46848;51.980;5.918;2023-06-14T02:30:48;5.15;;;1.90;;
43519;SDS011;46848;51.980;5.918;2023-06-14T02:33:13;3.80;;;2.05;;
43519;SDS011;46848;51.980;5.918;2023-06-14T02:35:39;3.63;;;1.80;;
43519;SDS011;46848;51.980;5.918;2023-06-14T02:38:05;7.55;;;2.13;;
43519;SDS011;46848;51.980;5.918;2023-06-14T02:40:30;3.50;;;1.58;;
43519;SDS011;46848;51.980;5.918;2023-06-14T02:42:56;4.57;;;1.90;;
43519;SDS011;46848;51.980;5.918;2023-06-14T02:45:21;5.78;;;2.03;;
43519;SDS011;46848;51.980;5.918;2023-06-14T02:47:47;3.70;;;1.60;;
43519;SDS011;46848;51.980;5.918;2023-06-14T02:50:13;4.85;;;1.85;;
43519;SDS011;46848;51.980;5.918;2023-06-14T02:52:38;4.45;;;1.40;;
43519;SDS011;46848;51.980;5.918;2023-06-14T02:55:06;4.90;;;2.08;;
43519;SDS011;46848;51.980;5.918;2023-06-14T02:57:33;3.92;;;1.60;;
43519;SDS011;46848;51.980;5.918;2023-06-14T02:59:58;3.65;;;1.88;;
43519;SDS011;46848;51.980;5.918;2023-06-14T03:02:24;4.40;;;1.90;;
43519;SDS011;46848;51.980;5.918;2023-06-14T03:04:50;6.18;;;2.00;;
43519;SDS011;46848;51.980;5.918;2023-06-14T03:07:16;5.20;;;1.77;;
43519;SDS011;46848;51.980;5.918;2023-06-14T03:09:44;5.60;;;1.70;;
43519;SDS011;46848;51.980;5.918;2023-06-14T03:12:10;3.63;;;1.95;;
43519;SDS011;46848;51.980;5.918;2023-06-14T03:14:37;5.47;;;2.22;;
43519;SDS011;46848;51.980;5.918;2023-06-14T03:17:03;3.25;;;1.50;;
43519;SDS011;46848;51.980;5.918;2023-06-14T03:19:29;3.95;;;1.63;;
43519;SDS011;46848;51.980;5.918;2023-06-14T03:21:55;3.90;;;1.63;;
43519;SDS011;46848;51.980;5.918;2023-06-14T03:24:24;5.22;;;1.80;;
43519;SDS011;46848;51.980;5.918;2023-06-14T03:26:52;4.60;;;1.80;;
43519;SDS011;46848;51.980;5.918;2023-06-14T03:29:18;3.72;;;1.73;;
43519;SDS011;46848;51.980;5.918;2023-06-14T03:32:00;6.78;;;1.92;;
43519;SDS011;46848;51.980;5.918;2023-06-14T03:34:26;4.38;;;1.50;;
43519;SDS011;46848;51.980;5.918;2023-06-14T03:36:52;7.47;;;1.92;;
43519;SDS011;46848;51.980;5.918;2023-06-14T03:39:18;4.75;;;1.80;;
43519;SDS011;46848;51.980;5.918;2023-06-14T03:41:44;2.60;;;1.50;;
43519;SDS011;46848;51.980;5.918;2023-06-14T03:44:10;8.88;;;2.17;;
43519;SDS011;46848;51.980;5.918;2023-06-14T03:46:36;5.15;;;2.13;;
43519;SDS011;46848;51.980;5.918;2023-06-14T03:49:01;5.13;;;2.00;;
43519;SDS011;46848;51.980;5.918;2023-06-14T03:51:28;5.78;;;1.83;;
43519;SDS011;46848;51.980;5.918;2023-06-14T03:53:54;4.50;;;1.90;;
43519;SDS011;46848;51.980;5.918;2023-06-14T03:56:20;6.18;;;2.08;;
43519;SDS011;46848;51.980;5.918;2023-06-14T03:58:46;4.20;;;1.92;;
43519;SDS011;46848;51.980;5.918;2023-06-14T04:01:12;4.88;;;1.85;;
43519;SDS011;46848;51.980;5.918;2023-06-14T04:03:38;3.15;;;1.52;;
43519;SDS011;46848;51.980;5.918;2023-06-14T04:06:05;5.25;;;1.48;;
43519;SDS011;46848;51.980;5.918;2023-06-14T04:08:31;5.35;;;1.75;;
43519;SDS011;46848;51.980;5.918;2023-06-14T04:10:57;5.80;;;2.10;;
43519;SDS011;46848;51.980;5.918;2023-06-14T04:13:22;4.00;;;1.92;;
43519;SDS011;46848;51.980;5.918;2023-06-14T04:15:48;6.20;;;1.90;;
43519;SDS011;46848;51.980;5.918;2023-06-14T04:18:14;5.07;;;2.05;;
43519;SDS011;46848;51.980;5.918;2023-06-14T04:20:39;4.53;;;1.67;;
43519;SDS011;46848;51.980;5.918;2023-06-14T04:23:15;5.43;;;1.90;;
43519;SDS011;46848;51.980;5.918;2023-06-14T04:25:43;4.75;;;1.67;;
43519;SDS011;46848;51.980;5.918;2023-06-14T04:28:11;2.97;;;1.75;;
43519;SDS011;46848;51.980;5.918;2023-06-14T04:30:37;7.13;;;1.80;;
43519;SDS011;46848;51.980;5.918;2023-06-14T04:33:04;5.93;;;1.90;;
43519;SDS011;46848;51.980;5.918;2023-06-14T04:35:30;4.05;;;1.63;;
43519;SDS011;46848;51.980;5.918;2023-06-14T04:37:57;7.05;;;1.80;;
43519;SDS011;46848;51.980;5.918;2023-06-14T04:40:24;4.38;;;1.90;;
43519;SDS011;46848;51.980;5.918;2023-06-14T04:42:50;5.60;;;1.73;;
43519;SDS011;46848;51.980;5.918;2023-06-14T04:45:16;5.68;;;2.00;;
43519;SDS011;46848;51.980;5.918;2023-06-14T04:47:41;4.65;;;1.75;;
43519;SDS011;46848;51.980;5.918;2023-06-14T04:50:09;9.20;;;2.30;;
43519;SDS011;46848;51.980;5.918;2023-06-14T04:52:38;3.45;;;1.60;;
43519;SDS011;46848;51.980;5.918;2023-06-14T04:55:03;5.10;;;1.92;;
43519;SDS011;46848;51.980;5.918;2023-06-14T04:57:30;3.38;;;1.77;;
43519;SDS011;46848;51.980;5.918;2023-06-14T04:59:56;5.55;;;1.75;;
43519;SDS011;46848;51.980;5.918;2023-06-14T05:02:22;4.40;;;2.00;;
43519;SDS011;46848;51.980;5.918;2023-06-14T05:04:49;5.22;;;1.98;;
43519;SDS011;46848;51.980;5.918;2023-06-14T05:07:15;2.90;;;1.80;;
43519;SDS011;46848;51.980;5.918;2023-06-14T05:09:41;3.33;;;1.95;;
43519;SDS011;46848;51.980;5.918;2023-06-14T05:12:07;5.63;;;1.70;;
43519;SDS011;46848;51.980;5.918;2023-06-14T05:14:33;6.95;;;1.70;;
43519;SDS011;46848;51.980;5.918;2023-06-14T05:16:59;5.43;;;2.33;;
43519;SDS011;46848;51.980;5.918;2023-06-14T05:19:25;4.25;;;1.60;;
43519;SDS011;46848;51.980;5.918;2023-06-14T05:21:51;4.63;;;1.90;;
43519;SDS011;46848;51.980;5.918;2023-06-14T05:24:18;5.05;;;2.22;;
43519;SDS011;46848;51.980;5.918;2023-06-14T05:26:44;5.35;;;1.90;;
43519;SDS011;46848;51.980;5.918;2023-06-14T05:29:10;5.05;;;1.95;;
43519;SDS011;46848;51.980;5.918;2023-06-14T05:31:35;4.03;;;1.70;;
43519;SDS011;46848;51.980;5.918;2023-06-14T05:34:01;5.97;;;2.13;;
43519;SDS011;46848;51.980;5.918;2023-06-14T05:36:27;2.45;;;1.67;;
43519;SDS011;46848;51.980;5.918;2023-06-14T05:38:52;4.22;;;2.22;;
43519;SDS011;46848;51.980;5.918;2023-06-14T05:41:27;6.53;;;1.80;;
43519;SDS011;46848;51.980;5.918;2023-06-14T05:43:56;5.30;;;1.40;;
43519;SDS011;46848;51.980;5.918;2023-06-14T05:46:22;5.57;;;1.85;;
43519;SDS011;46848;51.980;5.918;2023-06-14T05:48:52;3.42;;;1.80;;
43519;SDS011;46848;51.980;5.918;2023-06-14T05:51:18;3.60;;;1.90;;
43519;SDS011;46848;51.980;5.918;2023-06-14T05:53:47;4.55;;;2.25;;
43519;SDS011;46848;51.980;5.918;2023-06-14T05:56:14;5.93;;;2.22;;
43519;SDS011;46848;51.980;5.918;2023-06-14T05:58:40;8.77;;;2.13;;
43519;SDS011;46848;51.980;5.918;2023-06-14T06:01:06;5.70;;;2.05;;
43519;SDS011;46848;51.980;5.918;2023-06-14T06:03:32;4.20;;;2.10;;
43519;SDS011;46848;51.980;5.918;2023-06-14T06:05:57;9.80;;;2.40;;
43519;SDS011;46848;51.980;5.918;2023-06-14T06:08:23;3.58;;;1.85;;
43519;SDS011;46848;51.980;5.918;2023-06-14T06:10:49;5.35;;;2.03;;
43519;SDS011;46848;51.980;5.918;2023-06-14T06:13:15;3.70;;;2.30;;
43519;SDS011;46848;51.980;5.918;2023-06-14T06:15:41;3.85;;;1.80;;
43519;SDS011;46848;51.980;5.918;2023-06-14T06:18:06;3.88;;;2.20;;
43519;SDS011;46848;51.980;5.918;2023-06-14T06:20:32;5.40;;;2.25;;
43519;SDS011;46848;51.980;5.918;2023-06-14T06:22:58;6.03;;;1.90;;
43519;SDS011;46848;51.980;5.918;2023-06-14T06:25:24;4.00;;;1.90;;
43519;SDS011;46848;51.980;5.918;2023-06-14T06:27:51;4.57;;;2.00;;
43519;SDS011;46848;51.980;5.918;2023-06-14T06:30:18;8.07;;;1.98;;
43519;SDS011;46848;51.980;5.918;2023-06-14T06:32:44;5.97;;;2.38;;
43519;SDS011;46848;51.980;5.918;2023-06-14T06:35:09;5.65;;;2.53;;
43519;SDS011;46848;51.980;5.918;2023-06-14T06:37:36;4.25;;;2.20;;
43519;SDS011;46848;51.980;5.918;2023-06-14T06:40:02;3.80;;;1.73;;
43519;SDS011;46848;51.980;5.918;2023-06-14T06:42:34;4.80;;;1.85;;
43519;SDS011;46848;51.980;5.918;2023-06-14T06:45:00;7.00;;;2.15;;
43519;SDS011;46848;51.980;5.918;2023-06-14T06:47:26;3.30;;;2.08;;
43519;SDS011;46848;51.980;5.918;2023-06-14T06:49:52;4.50;;;1.90;;
43519;SDS011;46848;51.980;5.918;2023-06-14T06:52:18;4.30;;;1.90;;
43519;SDS011;46848;51.980;5.918;2023-06-14T06:54:43;3.15;;;1.58;;
43519;SDS011;46848;51.980;5.918;2023-06-14T06:57:09;9.30;;;2.33;;
43519;SDS011;46848;51.980;5.918;2023-06-14T06:59:35;12.30;;;2.05;;
43519;SDS011;46848;51.980;5.918;2023-06-14T07:02:01;4.82;;;2.05;;
43519;SDS011;46848;51.980;5.918;2023-06-14T07:04:27;4.45;;;2.03;;
43519;SDS011;46848;51.980;5.918;2023-06-14T07:06:53;8.75;;;2.00;;
43519;SDS011;46848;51.980;5.918;2023-06-14T07:09:18;4.93;;;1.70;;
43519;SDS011;46848;51.980;5.918;2023-06-14T07:11:47;4.55;;;1.90;;
43519;SDS011;46848;51.980;5.918;2023-06-14T07:14:13;3.42;;;2.03;;
43519;SDS011;46848;51.980;5.918;2023-06-14T07:16:38;5.35;;;2.40;;
43519;SDS011;46848;51.980;5.918;2023-06-14T07:19:04;5.60;;;1.60;;
43519;SDS011;46848;51.980;5.918;2023-06-14T07:21:30;4.40;;;1.77;;
43519;SDS011;46848;51.980;5.918;2023-06-14T07:23:56;3.33;;;1.83;;
43519;SDS011;46848;51.980;5.918;2023-06-14T07:26:22;15.23;;;1.98;;
43519;SDS011;46848;51.980;5.918;2023-06-14T07:28:48;4.60;;;1.98;;
43519;SDS011;46848;51.980;5.918;2023-06-14T07:31:14;4.10;;;1.48;;
43519;SDS011;46848;51.980;5.918;2023-06-14T07:33:40;5.00;;;1.58;;
43519;SDS011;46848;51.980;5.918;2023-06-14T07:36:06;4.30;;;1.70;;
43519;SDS011;46848;51.980;5.918;2023-06-14T07:38:32;4.30;;;1.80;;
43519;SDS011;46848;51.980;5.918;2023-06-14T07:40:58;7.88;;;1.60;;
43519;SDS011;46848;51.980;5.918;2023-06-14T07:43:24;2.65;;;1.23;;
43519;SDS011;46848;51.980;5.918;2023-06-14T07:45:50;4.55;;;1.42;;
43519;SDS011;46848;51.980;5.918;2023-06-14T07:48:16;2.03;;;1.33;;
43519;SDS011;46848;51.980;5.918;2023-06-14T07:50:41;2.45;;;0.98;;
43519;SDS011;46848;51.980;5.918;2023-06-14T07:53:07;2.58;;;1.08;;
43519;SDS011;46848;51.980;5.918;2023-06-14T07:55:32;4.50;;;0.93;;
43519;SDS011;46848;51.980;5.918;2023-06-14T07:58:01;3.08;;;1.40;;
43519;SDS011;46848;51.980;5.918;2023-06-14T08:00:27;3.25;;;1.08;;
43519;SDS011;46848;51.980;5.918;2023-06-14T08:02:53;2.78;;;1.27;;
43519;SDS011;46848;51.980;5.918;2023-06-14T08:05:23;2.35;;;1.13;;
43519;SDS011;46848;51.980;5.918;2023-06-14T08:07:49;3.78;;;1.20;;
43519;SDS011;46848;51.980;5.918;2023-06-14T08:10:15;4.75;;;1.30;;
43519;SDS011;46848;51.980;5.918;2023-06-14T08:12:41;2.00;;;1.00;;
43519;SDS011;46848;51.980;5.918;2023-06-14T08:15:06;2.75;;;1.40;;
43519;SDS011;46848;51.980;5.918;2023-06-14T08:17:32;4.43;;;1.30;;
43519;SDS011;46848;51.980;5.918;2023-06-14T08:19:58;3.25;;;1.70;;
43519;SDS011;46848;51.980;5.918;2023-06-14T08:22:24;3.05;;;1.30;;
43519;SDS011;46848;51.980;5.918;2023-06-14T08:24:50;1.77;;;1.10;;
43519;SDS011;46848;51.980;5.918;2023-06-14T08:27:18;4.05;;;1.50;;
43519;SDS011;46848;51.980;5.918;2023-06-14T08:29:43;3.42;;;1.27;;
43519;SDS011;46848;51.980;5.918;2023-06-14T08:32:09;3.25;;;1.25;;
43519;SDS011;46848;51.980;5.918;2023-06-14T08:34:35;3.40;;;1.48;;
43519;SDS011;46848;51.980;5.918;2023-06-14T08:37:01;3.25;;;1.00;;
43519;SDS011;46848;51.980;5.918;2023-06-14T08:39:26;5.93;;;1.40;;
43519;SDS011;46848;51.980;5.918;2023-06-14T08:41:52;4.03;;;1.55;;
43519;SDS011;46848;51.980;5.918;2023-06-14T08:44:19;1.92;;;1.40;;
43519;SDS011;46848;51.980;5.918;2023-06-14T08:46:45;5.03;;;1.45;;
43519;SDS011;46848;51.980;5.918;2023-06-14T08:49:13;2.65;;;1.20;;
43519;SDS011;46848;51.980;5.918;2023-06-14T08:51:42;3.92;;;1.40;;
43519;SDS011;46848;51.980;5.918;2023-06-14T08:54:09;3.92;;;1.65;;
43519;SDS011;46848;51.980;5.918;2023-06-14T08:56:37;2.08;;;1.25;;
43519;SDS011;46848;51.980;5.918;2023-06-14T08:59:03;9.07;;;1.60;;
43519;SDS011;46848;51.980;5.918;2023-06-14T09:01:32;4.00;;;1.33;;
43519;SDS011;46848;51.980;5.918;2023-06-14T09:03:59;4.45;;;1.30;;
43519;SDS011;46848;51.980;5.918;2023-06-14T09:06:25;3.97;;;1.60;;
43519;SDS011;46848;51.980;5.918;2023-06-14T09:08:53;2.10;;;1.27;;
43519;SDS011;46848;51.980;5.918;2023-06-14T09:11:22;2.78;;;1.23;;
43519;SDS011;46848;51.980;5.918;2023-06-14T09:13:48;3.63;;;1.35;;
43519;SDS011;46848;51.980;5.918;2023-06-14T09:16:14;2.42;;;1.40;;
43519;SDS011;46848;51.980;5.918;2023-06-14T09:18:44;2.17;;;0.90;;
43519;SDS011;46848;51.980;5.918;2023-06-14T09:21:12;3.03;;;1.10;;
43519;SDS011;46848;51.980;5.918;2023-06-14T09:23:43;4.97;;;1.13;;
43519;SDS011;46848;51.980;5.918;2023-06-14T09:26:10;2.47;;;1.10;;
43519;SDS011;46848;51.980;5.918;2023-06-14T09:28:41;3.22;;;1.20;;
43519;SDS011;46848;51.980;5.918;2023-06-14T09:31:11;3.35;;;1.27;;
43519;SDS011;46848;51.980;5.918;2023-06-14T09:33:37;2.03;;;1.13;;
43519;SDS011;46848;51.980;5.918;2023-06-14T09:36:03;4.90;;;1.25;;
43519;SDS011;46848;51.980;5.918;2023-06-14T09:38:34;5.15;;;1.00;;
43519;SDS011;46848;51.980;5.918;2023-06-14T09:41:00;1.80;;;0.88;;
43519;SDS011;46848;51.980;5.918;2023-06-14T09:43:29;3.60;;;1.20;;
43519;SDS011;46848;51.980;5.918;2023-06-14T09:45:55;2.13;;;1.02;;
43519;SDS011;46848;51.980;5.918;2023-06-14T09:48:21;2.03;;;1.00;;
43519;SDS011;46848;51.980;5.918;2023-06-14T09:50:46;3.25;;;0.90;;
43519;SDS011;46848;51.980;5.918;2023-06-14T09:53:14;2.63;;;1.00;;
43519;SDS011;46848;51.980;5.918;2023-06-14T09:55:44;2.80;;;1.05;;
43519;SDS011;46848;51.980;5.918;2023-06-14T09:58:10;3.60;;;1.13;;
43519;SDS011;46848;51.980;5.918;2023-06-14T10:00:39;2.00;;;1.08;;
43519;SDS011;46848;51.980;5.918;2023-06-14T10:05:38;3.58;;;1.00;;
43519;SDS011;46848;51.980;5.918;2023-06-14T10:08:08;3.75;;;0.90;;
43519;SDS011;46848;51.980;5.918;2023-06-14T10:10:35;2.88;;;1.05;;
43519;SDS011;46848;51.980;5.918;2023-06-14T10:13:04;2.88;;;1.02;;
43519;SDS011;46848;51.980;5.918;2023-06-14T10:15:35;1.45;;;1.00;;
43519;SDS011;46848;51.980;5.918;2023-06-14T10:18:11;3.90;;;1.35;;
43519;SDS011;46848;51.980;5.918;2023-06-14T10:23:48;3.95;;;1.20;;
43519;SDS011;46848;51.980;5.918;2023-06-14T10:26:19;3.65;;;1.40;;
43519;SDS011;46848;51.980;5.918;2023-06-14T10:28:55;4.22;;;1.15;;
43519;SDS011;46848;51.980;5.918;2023-06-14T10:31:26;3.08;;;0.88;;
43519;SDS011;46848;51.980;5.918;2023-06-14T10:34:08;2.00;;;1.02;;
43519;SDS011;46848;51.980;5.918;2023-06-14T10:36:34;2.85;;;1.10;;
43519;SDS011;46848;51.980;5.918;2023-06-14T10:39:16;3.33;;;1.38;;
43519;SDS011;46848;51.980;5.918;2023-06-14T10:41:50;2.25;;;1.15;;
43519;SDS011;46848;51.980;5.918;2023-06-14T10:46:46;4.68;;;1.17;;
43519;SDS011;46848;51.980;5.918;2023-06-14T10:52:10;4.35;;;0.90;;
43519;SDS011;46848;51.980;5.918;2023-06-14T10:57:44;2.40;;;1.20;;
43519;SDS011;46848;51.980;5.918;2023-06-14T11:00:12;2.00;;;1.10;;
43519;SDS011;46848;51.980;5.918;2023-06-14T11:05:18;4.47;;;1.35;;
43519;SDS011;46848;51.980;5.918;2023-06-14T11:10:42;1.45;;;0.90;;
43519;SDS011;46848;51.980;5.918;2023-06-14T11:13:10;2.03;;;0.90;;
43519;SDS011;46848;51.980;5.918;2023-06-14T11:15:36;1.65;;;1.00;;
43519;SDS011;46848;51.980;5.918;2023-06-14T11:18:04;3.88;;;1.80;;
43519;SDS011;46848;51.980;5.918;2023-06-14T11:23:00;2.75;;;1.35;;
43519;SDS011;46848;51.980;5.918;2023-06-14T11:25:26;4.22;;;1.27;;
43519;SDS011;46848;51.980;5.918;2023-06-14T11:27:55;3.22;;;1.25;;
43519;SDS011;46848;51.980;5.918;2023-06-14T11:30:22;2.65;;;1.13;;
43519;SDS011;46848;51.980;5.918;2023-06-14T11:32:52;4.43;;;1.33;;
43519;SDS011;46848;51.980;5.918;2023-06-14T11:35:19;2.90;;;1.40;;
43519;SDS011;46848;51.980;5.918;2023-06-14T11:37:48;3.08;;;1.30;;
43519;SDS011;46848;51.980;5.918;2023-06-14T11:40:14;4.80;;;1.45;;
43519;SDS011;46848;51.980;5.918;2023-06-14T11:42:40;2.50;;;1.60;;
43519;SDS011;46848;51.980;5.918;2023-06-14T11:45:07;2.13;;;1.20;;
43519;SDS011;46848;51.980;5.918;2023-06-14T11:47:34;1.60;;;1.10;;
43519;SDS011;46848;51.980;5.918;2023-06-14T11:50:00;3.40;;;1.30;;
43519;SDS011;46848;51.980;5.918;2023-06-14T11:52:26;5.20;;;1.58;;
43519;SDS011;46848;51.980;5.918;2023-06-14T11:54:52;2.83;;;1.60;;
43519;SDS011;46848;51.980;5.918;2023-06-14T11:57:19;5.78;;;1.40;;
43519;SDS011;46848;51.980;5.918;2023-06-14T11:59:45;2.50;;;1.30;;
43519;SDS011;46848;51.980;5.918;2023-06-14T12:02:18;4.32;;;1.10;;
43519;SDS011;46848;51.980;5.918;2023-06-14T12:04:46;4.68;;;1.33;;
43519;SDS011;46848;51.980;5.918;2023-06-14T12:07:13;4.03;;;1.20;;
43519;SDS011;46848;51.980;5.918;2023-06-14T12:09:42;3.15;;;1.10;;
43519;SDS011;46848;51.980;5.918;2023-06-14T12:12:31;1.92;;;1.00;;
43519;SDS011;46848;51.980;5.918;2023-06-14T12:15:02;2.33;;;1.10;;
43519;SDS011;46848;51.980;5.918;2023-06-14T12:17:31;2.95;;;1.15;;
43519;SDS011;46848;51.980;5.918;2023-06-14T12:19:58;3.38;;;1.23;;
43519;SDS011;46848;51.980;5.918;2023-06-14T12:22:23;2.65;;;1.30;;
43519;SDS011;46848;51.980;5.918;2023-06-14T12:24:49;2.13;;;0.90;;
43519;SDS011;46848;51.980;5.918;2023-06-14T12:27:15;3.42;;;1.10;;
43519;SDS011;46848;51.980;5.918;2023-06-14T12:29:43;4.05;;;0.77;;
43519;SDS011;46848;51.980;5.918;2023-06-14T12:32:10;2.55;;;1.10;;
43519;SDS011;46848;51.980;5.918;2023-06-14T12:34:36;2.75;;;1.00;;
43519;SDS011;46848;51.980;5.918;2023-06-14T12:37:02;3.75;;;1.10;;
43519;SDS011;46848;51.980;5.918;2023-06-14T12:39:29;1.88;;;0.80;;
43519;SDS011;46848;51.980;5.918;2023-06-14T12:41:56;1.23;;;0.57;;
43519;SDS011;46848;51.980;5.918;2023-06-14T12:44:22;2.05;;;0.90;;
43519;SDS011;46848;51.980;5.918;2023-06-14T12:46:48;2.05;;;0.60;;
43519;SDS011;46848;51.980;5.918;2023-06-14T12:49:16;1.70;;;0.80;;
43519;SDS011;46848;51.980;5.918;2023-06-14T12:51:42;3.25;;;1.00;;
43519;SDS011;46848;51.980;5.918;2023-06-14T12:54:08;1.50;;;0.80;;
43519;SDS011;46848;51.980;5.918;2023-06-14T12:56:33;1.75;;;0.93;;
43519;SDS011;46848;51.980;5.918;2023-06-14T12:58:59;1.88;;;0.80;;
43519;SDS011;46848;51.980;5.918;2023-06-14T13:01:25;3.22;;;1.08;;
43519;SDS011;46848;51.980;5.918;2023-06-14T13:03:51;2.28;;;0.98;;
43519;SDS011;46848;51.980;5.918;2023-06-14T13:06:22;3.38;;;1.00;;
43519;SDS011;46848;51.980;5.918;2023-06-14T13:08:47;2.83;;;0.80;;
43519;SDS011;46848;51.980;5.918;2023-06-14T13:11:14;3.55;;;0.70;;
43519;SDS011;46848;51.980;5.918;2023-06-14T13:13:39;2.65;;;0.60;;
43519;SDS011;46848;51.980;5.918;2023-06-14T13:16:05;3.33;;;0.80;;
43519;SDS011;46848;51.980;5.918;2023-06-14T13:18:31;1.90;;;0.90;;
43519;SDS011;46848;51.980;5.918;2023-06-14T13:20:56;3.17;;;0.88;;
43519;SDS011;46848;51.980;5.918;2023-06-14T13:23:22;4.38;;;0.65;;
43519;SDS011;46848;51.980;5.918;2023-06-14T13:25:48;2.08;;;0.73;;
43519;SDS011;46848;51.980;5.918;2023-06-14T13:28:16;2.88;;;0.70;;
43519;SDS011;46848;51.980;5.918;2023-06-14T13:30:41;1.35;;;0.70;;
43519;SDS011;46848;51.980;5.918;2023-06-14T13:33:07;2.85;;;0.70;;
43519;SDS011;46848;51.980;5.918;2023-06-14T13:35:33;2.83;;;0.70;;
43519;SDS011;46848;51.980;5.918;2023-06-14T13:37:58;1.75;;;0.77;;
43519;SDS011;46848;51.980;5.918;2023-06-14T13:40:24;2.50;;;0.63;;
43519;SDS011;46848;51.980;5.918;2023-06-14T13:42:50;3.63;;;0.70;;
43519;SDS011;46848;51.980;5.918;2023-06-14T13:45:15;2.92;;;0.70;;
43519;SDS011;46848;51.980;5.918;2023-06-14T13:47:41;1.67;;;0.50;;
43519;SDS011;46848;51.980;5.918;2023-06-14T13:50:07;1.35;;;0.60;;
43519;SDS011;46848;51.980;5.918;2023-06-14T13:52:33;4.47;;;0.88;;
43519;SDS011;46848;51.980;5.918;2023-06-14T13:54:59;2.88;;;0.80;;
43519;SDS011;46848;51.980;5.918;2023-06-14T13:57:25;1.90;;;0.77;;
43519;SDS011;46848;51.980;5.918;2023-06-14T13:59:51;1.10;;;0.60;;
43519;SDS011;46848;51.980;5.918;2023-06-14T14:02:18;1.50;;;0.60;;
43519;SDS011;46848;51.980;5.918;2023-06-14T14:04:44;1.13;;;0.70;;
43519;SDS011;46848;51.980;5.918;2023-06-14T14:07:16;2.15;;;0.70;;
43519;SDS011;46848;51.980;5.918;2023-06-14T14:09:41;4.32;;;0.85;;
43519;SDS011;46848;51.980;5.918;2023-06-14T14:12:08;1.35;;;0.98;;
43519;SDS011;46848;51.980;5.918;2023-06-14T14:14:33;2.85;;;0.80;;
43519;SDS011;46848;51.980;5.918;2023-06-14T14:16:59;2.58;;;0.80;;
43519;SDS011;46848;51.980;5.918;2023-06-14T14:19:24;3.20;;;0.77;;
43519;SDS011;46848;51.980;5.918;2023-06-14T14:21:50;1.33;;;0.70;;
43519;SDS011;46848;51.980;5.918;2023-06-14T14:24:18;4.22;;;0.80;;
43519;SDS011;46848;51.980;5.918;2023-06-14T14:26:44;4.65;;;0.80;;
43519;SDS011;46848;51.980;5.918;2023-06-14T14:29:12;2.92;;;0.75;;
43519;SDS011;46848;51.980;5.918;2023-06-14T14:31:37;2.83;;;0.80;;
43519;SDS011;46848;51.980;5.918;2023-06-14T14:34:03;1.00;;;0.70;;
43519;SDS011;46848;51.980;5.918;2023-06-14T14:36:29;3.15;;;1.02;;
43519;SDS011;46848;51.980;5.918;2023-06-14T14:38:55;1.05;;;0.70;;
43519;SDS011;46848;51.980;5.918;2023-06-14T14:41:20;4.35;;;1.10;;
43519;SDS011;46848;51.980;5.918;2023-06-14T14:43:46;1.77;;;0.70;;
43519;SDS011;46848;51.980;5.918;2023-06-14T14:46:12;1.02;;;0.77;;
43519;SDS011;46848;51.980;5.918;2023-06-14T14:48:37;2.08;;;0.70;;
43519;SDS011;46848;51.980;5.918;2023-06-14T14:51:03;1.30;;;0.55;;
43519;SDS011;46848;51.980;5.918;2023-06-14T14:53:28;2.55;;;0.80;;
43519;SDS011;46848;51.980;5.918;2023-06-14T14:55:54;3.70;;;0.90;;
43519;SDS011;46848;51.980;5.918;2023-06-14T14:58:20;6.35;;;1.00;;
43519;SDS011;46848;51.980;5.918;2023-06-14T15:00:45;1.90;;;0.98;;
43519;SDS011;46848;51.980;5.918;2023-06-14T15:03:12;3.78;;;0.88;;
43519;SDS011;46848;51.980;5.918;2023-06-14T15:05:37;2.28;;;0.90;;
43519;SDS011;46848;51.980;5.918;2023-06-14T15:08:03;2.33;;;0.90;;
43519;SDS011;46848;51.980;5.918;2023-06-14T15:10:35;1.67;;;0.80;;
43519;SDS011;46848;51.980;5.918;2023-06-14T15:13:01;1.75;;;0.70;;